KLM86L EHAM-LKPR
Flight info
| Callsign | KLM86L |
|---|---|
| Flight time | 1h 8m |
| Altitude | 39000 |
| Route | ARNEM3S/24 ARNEM L620 HMM DCT NOMKA DCT SUVUT L620 PIKIB T620 LALUK DCT GOLOP |
| Aircraft | A20N/M-SDE2E3FGHIRWXY/LB1 |
Departure
| Time | 2026-05-04 12:03 |
|---|---|
| Airport | Amsterdam Airport Schiphol (EHAM) |
Arrival
| Time | 2026-05-04 13:12 |
|---|---|
| Airport | Václav Havel Airport Prague (LKPR) |
| Time | Latitude | Longitude | Altitude | Speed | Heading |
|---|---|---|---|---|---|
| 2026-05-04 11:16 | 52.31286 | 4.75601 | -2 ft | 0 kts | 86° |
| 2026-05-04 11:51 | 52.31285 | 4.75588 | -1 ft | 2 kts | 86° |
| 2026-05-04 11:51 | 52.31284 | 4.75564 | -1 ft | 2 kts | 86° |
| 2026-05-04 11:51 | 52.31284 | 4.75539 | -1 ft | 2 kts | 86° |
| 2026-05-04 11:52 | 52.31283 | 4.75519 | -1 ft | 0 kts | 86° |
| 2026-05-04 11:52 | 52.31281 | 4.75499 | -1 ft | 2 kts | 69° |
| 2026-05-04 11:52 | 52.31274 | 4.75479 | -1 ft | 2 kts | 48° |
| 2026-05-04 11:52 | 52.31263 | 4.75464 | -1 ft | 2 kts | 26° |
| 2026-05-04 11:53 | 52.31249 | 4.75456 | -1 ft | 2 kts | 5° |
| 2026-05-04 11:53 | 52.31241 | 4.75456 | -1 ft | 1 kts | 353° |
| 2026-05-04 11:53 | 52.31237 | 4.75457 | -1 ft | 0 kts | 356° |
| 2026-05-04 11:55 | 52.31268 | 4.75454 | -2 ft | 6 kts | 356° |
| 2026-05-04 11:55 | 52.31325 | 4.75448 | -2 ft | 8 kts | 357° |
| 2026-05-04 11:56 | 52.31383 | 4.75446 | -2 ft | 8 kts | 10° |
| 2026-05-04 11:56 | 52.31429 | 4.75529 | -1 ft | 12 kts | 74° |
| 2026-05-04 11:56 | 52.31437 | 4.75692 | -2 ft | 16 kts | 88° |
| 2026-05-04 11:56 | 52.31442 | 4.75857 | -2 ft | 16 kts | 88° |
| 2026-05-04 11:57 | 52.31449 | 4.76054 | -1 ft | 19 kts | 86° |
| 2026-05-04 11:57 | 52.31457 | 4.76276 | -1 ft | 20 kts | 86° |
| 2026-05-04 11:57 | 52.31467 | 4.76520 | -1 ft | 22 kts | 86° |
| 2026-05-04 11:57 | 52.31475 | 4.76765 | -1 ft | 18 kts | 88° |
| 2026-05-04 11:58 | 52.31480 | 4.76969 | -2 ft | 16 kts | 87° |
| 2026-05-04 11:58 | 52.31479 | 4.77135 | -2 ft | 12 kts | 109° |
| 2026-05-04 11:58 | 52.31430 | 4.77256 | -2 ft | 13 kts | 129° |
| 2026-05-04 11:58 | 52.31366 | 4.77376 | -2 ft | 14 kts | 134° |
| 2026-05-04 11:59 | 52.31293 | 4.77482 | -2 ft | 14 kts | 155° |
| 2026-05-04 11:59 | 52.31194 | 4.77501 | -2 ft | 14 kts | 183° |
| 2026-05-04 11:59 | 52.31115 | 4.77492 | -2 ft | 15 kts | 184° |
| 2026-05-04 11:59 | 52.31072 | 4.77487 | -1 ft | 15 kts | 184° |
| 2026-05-04 12:00 | 52.30966 | 4.77481 | -1 ft | 15 kts | 183° |
| 2026-05-04 12:00 | 52.30857 | 4.77470 | -2 ft | 16 kts | 184° |
| 2026-05-04 12:00 | 52.30744 | 4.77458 | -2 ft | 12 kts | 183° |
| 2026-05-04 12:00 | 52.30657 | 4.77469 | -2 ft | 13 kts | 160° |
| 2026-05-04 12:01 | 52.30572 | 4.77538 | -2 ft | 14 kts | 153° |
| 2026-05-04 12:01 | 52.30497 | 4.77583 | -1 ft | 11 kts | 176° |
| 2026-05-04 12:02 | 52.30141 | 4.76922 | -1 ft | 91 kts | 238° |
| 2026-05-04 12:03 | 52.29673 | 4.75712 | 0 ft | 158 kts | 237° |
| 2026-05-04 12:03 | 52.29055 | 4.74111 | 553 ft | 168 kts | 240° |
| 2026-05-04 12:03 | 52.28457 | 4.72504 | 1357 ft | 168 kts | 239° |
| 2026-05-04 12:03 | 52.27860 | 4.70895 | 2072 ft | 172 kts | 239° |
| 2026-05-04 12:04 | 52.27195 | 4.69225 | 2655 ft | 183 kts | 228° |
| 2026-05-04 12:04 | 52.26062 | 4.68220 | 3135 ft | 201 kts | 186° |
| 2026-05-04 12:04 | 52.24644 | 4.68607 | 3692 ft | 219 kts | 160° |
| 2026-05-04 12:04 | 52.23180 | 4.69571 | 4277 ft | 237 kts | 150° |
| 2026-05-04 12:05 | 52.21985 | 4.71440 | 4970 ft | 248 kts | 120° |
| 2026-05-04 12:05 | 52.21297 | 4.73962 | 5701 ft | 243 kts | 110° |
| 2026-05-04 12:05 | 52.20710 | 4.76545 | 6408 ft | 249 kts | 114° |
| 2026-05-04 12:05 | 52.19938 | 4.79092 | 7180 ft | 258 kts | 120° |
| 2026-05-04 12:06 | 52.19027 | 4.81735 | 7760 ft | 276 kts | 121° |
| 2026-05-04 12:06 | 52.18057 | 4.84473 | 8497 ft | 287 kts | 119° |
| 2026-05-04 12:06 | 52.17471 | 4.87558 | 9372 ft | 294 kts | 93° |
| 2026-05-04 12:06 | 52.17768 | 4.90837 | 10231 ft | 298 kts | 73° |
| 2026-05-04 12:07 | 52.18413 | 4.94107 | 10861 ft | 311 kts | 72° |
| 2026-05-04 12:07 | 52.19099 | 4.97515 | 11305 ft | 329 kts | 72° |
| 2026-05-04 12:07 | 52.19813 | 5.01146 | 11842 ft | 344 kts | 72° |
| 2026-05-04 12:07 | 52.20528 | 5.04873 | 12527 ft | 352 kts | 73° |
| 2026-05-04 12:08 | 52.21249 | 5.08682 | 13319 ft | 356 kts | 73° |
| 2026-05-04 12:08 | 52.21978 | 5.12561 | 14077 ft | 361 kts | 73° |
| 2026-05-04 12:08 | 52.22706 | 5.16453 | 14827 ft | 366 kts | 73° |
| 2026-05-04 12:08 | 52.23451 | 5.20446 | 15558 ft | 370 kts | 73° |
| 2026-05-04 12:09 | 52.24053 | 5.24513 | 16289 ft | 374 kts | 82° |
| 2026-05-04 12:09 | 52.24263 | 5.28683 | 17006 ft | 376 kts | 91° |
| 2026-05-04 12:09 | 52.24127 | 5.32945 | 17715 ft | 379 kts | 95° |
| 2026-05-04 12:09 | 52.23892 | 5.37198 | 18363 ft | 383 kts | 96° |
| 2026-05-04 12:10 | 52.23644 | 5.41543 | 19036 ft | 387 kts | 96° |
| 2026-05-04 12:10 | 52.23405 | 5.45944 | 19616 ft | 393 kts | 96° |
| 2026-05-04 12:10 | 52.23096 | 5.50383 | 20208 ft | 397 kts | 101° |
| 2026-05-04 12:10 | 52.22500 | 5.54747 | 20797 ft | 399 kts | 108° |
| 2026-05-04 12:11 | 52.21605 | 5.59017 | 21406 ft | 402 kts | 113° |
| 2026-05-04 12:11 | 52.20581 | 5.63253 | 21999 ft | 406 kts | 115° |
| 2026-05-04 12:11 | 52.19529 | 5.67503 | 22575 ft | 410 kts | 116° |
| 2026-05-04 12:11 | 52.18457 | 5.71833 | 23170 ft | 414 kts | 116° |
| 2026-05-04 12:12 | 52.17386 | 5.76181 | 23715 ft | 418 kts | 116° |
| 2026-05-04 12:12 | 52.16299 | 5.80602 | 24312 ft | 422 kts | 116° |
| 2026-05-04 12:12 | 52.15219 | 5.85014 | 24905 ft | 425 kts | 116° |
| 2026-05-04 12:12 | 52.14122 | 5.89486 | 25460 ft | 428 kts | 117° |
| 2026-05-04 12:13 | 52.13027 | 5.93934 | 26013 ft | 430 kts | 117° |
| 2026-05-04 12:14 | 52.07542 | 6.27718 | 29289 ft | 456 kts | 104° |
| 2026-05-04 12:15 | 52.07023 | 6.32793 | 29691 ft | 458 kts | 105° |
| 2026-05-04 12:15 | 52.06500 | 6.37828 | 30117 ft | 458 kts | 105° |
| 2026-05-04 12:15 | 52.05968 | 6.42901 | 30620 ft | 457 kts | 105° |
| 2026-05-04 12:15 | 52.05432 | 6.47959 | 31089 ft | 455 kts | 105° |
| 2026-05-04 12:16 | 52.04892 | 6.53005 | 31438 ft | 455 kts | 105° |
| 2026-05-04 12:16 | 52.04347 | 6.58066 | 31743 ft | 457 kts | 105° |
| 2026-05-04 12:16 | 52.03797 | 6.63169 | 32068 ft | 458 kts | 105° |
| 2026-05-04 12:16 | 52.03254 | 6.68182 | 32361 ft | 460 kts | 106° |
| 2026-05-04 12:17 | 52.02702 | 6.73279 | 32694 ft | 460 kts | 106° |
| 2026-05-04 12:17 | 52.02061 | 6.78334 | 33011 ft | 458 kts | 109° |
| 2026-05-04 12:17 | 52.01291 | 6.83359 | 33354 ft | 457 kts | 110° |
| 2026-05-04 12:17 | 52.00502 | 6.88334 | 33666 ft | 457 kts | 110° |
| 2026-05-04 12:18 | 51.99704 | 6.93336 | 33943 ft | 459 kts | 110° |
| 2026-05-04 12:18 | 51.98911 | 6.98305 | 34203 ft | 460 kts | 110° |
| 2026-05-04 12:18 | 51.98119 | 7.03289 | 34481 ft | 461 kts | 110° |
| 2026-05-04 12:18 | 51.97316 | 7.08307 | 34726 ft | 462 kts | 110° |
| 2026-05-04 12:19 | 51.96453 | 7.13341 | 35011 ft | 460 kts | 111° |
| 2026-05-04 12:19 | 51.95556 | 7.18238 | 35326 ft | 458 kts | 111° |
| 2026-05-04 12:19 | 51.94642 | 7.23163 | 35647 ft | 456 kts | 112° |
| 2026-05-04 12:19 | 51.93737 | 7.28017 | 35951 ft | 454 kts | 111° |
| 2026-05-04 12:20 | 51.92829 | 7.32888 | 36226 ft | 453 kts | 111° |
| 2026-05-04 12:20 | 51.91920 | 7.37750 | 36456 ft | 452 kts | 111° |
| 2026-05-04 12:20 | 51.91013 | 7.42600 | 36765 ft | 451 kts | 111° |
| 2026-05-04 12:20 | 51.90105 | 7.47432 | 37087 ft | 450 kts | 111° |
| 2026-05-04 12:21 | 51.89190 | 7.52304 | 37417 ft | 449 kts | 111° |
| 2026-05-04 12:21 | 51.88291 | 7.57071 | 37712 ft | 448 kts | 111° |
| 2026-05-04 12:21 | 51.87374 | 7.61911 | 37942 ft | 449 kts | 111° |
| 2026-05-04 12:21 | 51.86460 | 7.66730 | 38100 ft | 450 kts | 112° |
| 2026-05-04 12:22 | 51.85615 | 7.71540 | 38279 ft | 453 kts | 109° |
| 2026-05-04 12:22 | 51.84905 | 7.76529 | 38488 ft | 454 kts | 107° |
| 2026-05-04 12:22 | 51.84240 | 7.81490 | 38697 ft | 455 kts | 107° |
| 2026-05-04 12:22 | 51.83573 | 7.86489 | 38839 ft | 456 kts | 107° |
| 2026-05-04 12:23 | 51.82229 | 7.96495 | 38940 ft | 457 kts | 107° |
| 2026-05-04 12:23 | 51.80876 | 8.06471 | 38940 ft | 457 kts | 107° |
| 2026-05-04 12:24 | 51.79506 | 8.16459 | 38935 ft | 458 kts | 107° |
| 2026-05-04 12:24 | 51.78124 | 8.26472 | 38936 ft | 459 kts | 107° |
| 2026-05-04 12:25 | 51.77501 | 8.30967 | 38938 ft | 459 kts | 107° |
| 2026-05-04 12:25 | 51.76384 | 8.38997 | 38912 ft | 457 kts | 107° |
| 2026-05-04 12:26 | 51.74993 | 8.48923 | 38949 ft | 456 kts | 107° |
| 2026-05-04 12:26 | 51.73591 | 8.58852 | 38978 ft | 457 kts | 107° |
| 2026-05-04 12:27 | 51.72171 | 8.68848 | 38983 ft | 458 kts | 107° |
| 2026-05-04 12:27 | 51.70751 | 8.78779 | 38958 ft | 459 kts | 107° |
| 2026-05-04 12:28 | 51.69318 | 8.88738 | 38951 ft | 459 kts | 107° |
| 2026-05-04 12:28 | 51.67867 | 8.98769 | 38953 ft | 459 kts | 107° |
| 2026-05-04 12:29 | 51.66421 | 9.08692 | 38952 ft | 458 kts | 107° |
| 2026-05-04 12:29 | 51.64959 | 9.18662 | 38954 ft | 458 kts | 107° |
| 2026-05-04 12:30 | 51.63495 | 9.28575 | 38956 ft | 458 kts | 107° |
| 2026-05-04 12:30 | 51.62015 | 9.38521 | 38953 ft | 459 kts | 107° |
| 2026-05-04 12:31 | 51.60530 | 9.48461 | 38954 ft | 459 kts | 107° |
| 2026-05-04 12:31 | 51.59036 | 9.58392 | 38950 ft | 460 kts | 107° |
| 2026-05-04 12:32 | 51.56775 | 9.73303 | 38948 ft | 460 kts | 108° |
| 2026-05-04 12:33 | 51.55257 | 9.83241 | 38945 ft | 460 kts | 108° |
| 2026-05-04 12:33 | 51.53736 | 9.93128 | 38940 ft | 460 kts | 108° |
| 2026-05-04 12:34 | 51.52200 | 10.03057 | 38940 ft | 459 kts | 108° |
| 2026-05-04 12:34 | 51.50655 | 10.12978 | 38940 ft | 459 kts | 108° |
| 2026-05-04 12:35 | 51.49103 | 10.22886 | 38941 ft | 459 kts | 107° |
| 2026-05-04 12:35 | 51.47541 | 10.32802 | 38948 ft | 459 kts | 107° |
| 2026-05-04 12:36 | 51.45980 | 10.42643 | 38949 ft | 459 kts | 107° |
| 2026-05-04 12:36 | 51.44405 | 10.52530 | 38955 ft | 460 kts | 107° |
| 2026-05-04 12:37 | 51.42847 | 10.62424 | 38949 ft | 459 kts | 107° |
| 2026-05-04 12:37 | 51.41284 | 10.72300 | 38946 ft | 459 kts | 108° |
| 2026-05-04 12:38 | 51.39711 | 10.82176 | 38942 ft | 459 kts | 108° |
| 2026-05-04 12:38 | 51.38131 | 10.92025 | 38932 ft | 459 kts | 108° |
| 2026-05-04 12:39 | 51.36531 | 11.01925 | 38934 ft | 459 kts | 108° |
| 2026-05-04 12:39 | 51.34934 | 11.11758 | 38933 ft | 459 kts | 108° |
| 2026-05-04 12:40 | 51.33329 | 11.21581 | 38932 ft | 458 kts | 108° |
| 2026-05-04 12:40 | 51.31721 | 11.31367 | 38930 ft | 458 kts | 107° |
| 2026-05-04 12:41 | 51.30103 | 11.41156 | 38932 ft | 459 kts | 108° |
| 2026-05-04 12:41 | 51.28457 | 11.51001 | 38937 ft | 459 kts | 108° |
| 2026-05-04 12:42 | 51.26797 | 11.60790 | 38935 ft | 459 kts | 107° |
| 2026-05-04 12:42 | 51.25155 | 11.70564 | 38929 ft | 459 kts | 108° |
| 2026-05-04 12:43 | 51.23489 | 11.80398 | 38943 ft | 459 kts | 108° |
| 2026-05-04 12:43 | 51.21829 | 11.90133 | 38938 ft | 459 kts | 108° |
| 2026-05-04 12:44 | 51.20149 | 11.99947 | 38936 ft | 458 kts | 108° |
| 2026-05-04 12:44 | 51.18479 | 12.09695 | 38947 ft | 459 kts | 108° |
| 2026-05-04 12:45 | 51.16792 | 12.19472 | 38946 ft | 459 kts | 108° |
| 2026-05-04 12:45 | 51.15097 | 12.29199 | 38947 ft | 458 kts | 108° |
| 2026-05-04 12:46 | 51.13374 | 12.38959 | 38948 ft | 459 kts | 108° |
| 2026-05-04 12:46 | 51.11644 | 12.48712 | 38954 ft | 459 kts | 108° |
| 2026-05-04 12:47 | 51.09918 | 12.58377 | 38954 ft | 458 kts | 108° |
| 2026-05-04 12:47 | 51.08167 | 12.68152 | 38608 ft | 457 kts | 109° |
| 2026-05-04 12:47 | 51.07298 | 12.72976 | 38347 ft | 454 kts | 109° |
| 2026-05-04 12:48 | 51.06446 | 12.77695 | 38083 ft | 451 kts | 109° |
| 2026-05-04 12:48 | 51.05582 | 12.82468 | 37774 ft | 448 kts | 109° |
| 2026-05-04 12:48 | 51.04723 | 12.87195 | 37419 ft | 447 kts | 109° |
| 2026-05-04 12:48 | 51.03861 | 12.91924 | 37024 ft | 447 kts | 109° |
| 2026-05-04 12:49 | 51.02994 | 12.96672 | 36598 ft | 448 kts | 109° |
| 2026-05-04 12:49 | 51.02124 | 13.01420 | 36050 ft | 450 kts | 109° |
| 2026-05-04 12:49 | 51.01256 | 13.06146 | 35449 ft | 453 kts | 109° |
| 2026-05-04 12:49 | 51.00377 | 13.10925 | 34798 ft | 455 kts | 109° |
| 2026-05-04 12:50 | 50.99480 | 13.15780 | 34042 ft | 457 kts | 109° |
| 2026-05-04 12:50 | 50.98588 | 13.20600 | 33347 ft | 458 kts | 109° |
| 2026-05-04 12:50 | 50.97702 | 13.25380 | 32674 ft | 458 kts | 109° |
| 2026-05-04 12:50 | 50.96806 | 13.30187 | 31991 ft | 458 kts | 109° |
| 2026-05-04 12:51 | 50.95915 | 13.35029 | 31301 ft | 458 kts | 108° |
| 2026-05-04 12:51 | 50.95055 | 13.39860 | 30605 ft | 458 kts | 108° |
| 2026-05-04 12:51 | 50.94206 | 13.44661 | 29906 ft | 458 kts | 108° |
| 2026-05-04 12:51 | 50.93345 | 13.49486 | 29208 ft | 457 kts | 108° |
| 2026-05-04 12:52 | 50.92459 | 13.54286 | 28713 ft | 452 kts | 108° |
| 2026-05-04 12:52 | 50.91576 | 13.58994 | 28229 ft | 447 kts | 108° |
| 2026-05-04 12:52 | 50.90698 | 13.63654 | 27749 ft | 442 kts | 108° |
| 2026-05-04 12:52 | 50.89706 | 13.68211 | 27256 ft | 435 kts | 116° |
| 2026-05-04 12:53 | 50.88329 | 13.72454 | 26772 ft | 428 kts | 124° |
| 2026-05-04 12:53 | 50.86626 | 13.76239 | 26294 ft | 421 kts | 131° |
| 2026-05-04 12:53 | 50.84779 | 13.79792 | 25817 ft | 417 kts | 133° |
| 2026-05-04 12:53 | 50.82935 | 13.83266 | 25351 ft | 413 kts | 132° |
| 2026-05-04 12:54 | 50.81189 | 13.86807 | 24884 ft | 411 kts | 129° |
| 2026-05-04 12:54 | 50.79599 | 13.90525 | 24407 ft | 409 kts | 124° |
| 2026-05-04 12:54 | 50.78167 | 13.94389 | 23908 ft | 406 kts | 122° |
| 2026-05-04 12:54 | 50.76666 | 13.98117 | 23300 ft | 402 kts | 133° |
| 2026-05-04 12:55 | 50.74560 | 14.00866 | 22330 ft | 403 kts | 151° |
| 2026-05-04 12:55 | 50.72115 | 14.02983 | 21524 ft | 404 kts | 155° |
| 2026-05-04 12:55 | 50.69624 | 14.05034 | 20905 ft | 401 kts | 154° |
| 2026-05-04 12:55 | 50.67212 | 14.07081 | 20492 ft | 389 kts | 154° |
| 2026-05-04 12:56 | 50.64908 | 14.09103 | 19963 ft | 375 kts | 153° |
| 2026-05-04 12:56 | 50.62677 | 14.11101 | 19084 ft | 369 kts | 153° |
| 2026-05-04 12:56 | 50.60463 | 14.13107 | 18131 ft | 365 kts | 152° |
| 2026-05-04 12:56 | 50.58292 | 14.15093 | 17208 ft | 360 kts | 152° |
| 2026-05-04 12:57 | 50.56169 | 14.17046 | 16318 ft | 355 kts | 152° |
| 2026-05-04 12:57 | 50.54049 | 14.18999 | 15427 ft | 350 kts | 152° |
| 2026-05-04 12:57 | 50.51993 | 14.20895 | 14592 ft | 349 kts | 152° |
| 2026-05-04 12:57 | 50.49901 | 14.22822 | 14047 ft | 345 kts | 152° |
| 2026-05-04 12:58 | 50.47869 | 14.24697 | 13591 ft | 341 kts | 152° |
| 2026-05-04 12:58 | 50.45815 | 14.26590 | 13115 ft | 338 kts | 152° |
| 2026-05-04 12:58 | 50.43818 | 14.28430 | 12642 ft | 336 kts | 152° |
| 2026-05-04 12:58 | 50.41795 | 14.30291 | 12159 ft | 334 kts | 152° |
| 2026-05-04 12:59 | 50.39808 | 14.32117 | 11685 ft | 332 kts | 152° |
| 2026-05-04 12:59 | 50.37854 | 14.33911 | 11225 ft | 329 kts | 152° |
| 2026-05-04 12:59 | 50.35885 | 14.35716 | 10744 ft | 327 kts | 152° |
| 2026-05-04 12:59 | 50.33915 | 14.37520 | 10265 ft | 325 kts | 152° |
| 2026-05-04 13:00 | 50.32000 | 14.39274 | 9791 ft | 320 kts | 152° |
| 2026-05-04 13:00 | 50.30089 | 14.41021 | 9141 ft | 312 kts | 152° |
| 2026-05-04 13:00 | 50.28266 | 14.42687 | 8722 ft | 294 kts | 152° |
| 2026-05-04 13:00 | 50.26563 | 14.44243 | 8278 ft | 280 kts | 152° |
| 2026-05-04 13:01 | 50.24900 | 14.45755 | 7642 ft | 277 kts | 151° |
| 2026-05-04 13:01 | 50.23232 | 14.47269 | 7008 ft | 278 kts | 151° |
| 2026-05-04 13:01 | 50.21586 | 14.48764 | 6593 ft | 276 kts | 150° |
| 2026-05-04 13:01 | 50.19938 | 14.50264 | 6211 ft | 274 kts | 150° |
| 2026-05-04 13:02 | 50.18298 | 14.51755 | 5827 ft | 273 kts | 150° |
| 2026-05-04 13:02 | 50.16677 | 14.53227 | 5448 ft | 272 kts | 150° |
| 2026-05-04 13:02 | 50.15039 | 14.54711 | 5085 ft | 270 kts | 150° |
| 2026-05-04 13:02 | 50.13426 | 14.56177 | 4848 ft | 270 kts | 149° |
| 2026-05-04 13:03 | 50.11816 | 14.57641 | 4607 ft | 269 kts | 149° |
| 2026-05-04 13:03 | 50.10195 | 14.59109 | 4451 ft | 269 kts | 149° |
| 2026-05-04 13:03 | 50.08583 | 14.60559 | 4374 ft | 261 kts | 149° |
| 2026-05-04 13:03 | 50.07049 | 14.61929 | 4296 ft | 249 kts | 149° |
| 2026-05-04 13:04 | 50.05586 | 14.63233 | 4216 ft | 237 kts | 149° |
| 2026-05-04 13:04 | 50.04175 | 14.64490 | 4145 ft | 236 kts | 149° |
| 2026-05-04 13:04 | 50.02759 | 14.65752 | 4068 ft | 229 kts | 150° |
| 2026-05-04 13:04 | 50.01382 | 14.66975 | 4002 ft | 225 kts | 151° |
| 2026-05-04 13:05 | 49.99942 | 14.67808 | 3985 ft | 225 kts | 176° |
| 2026-05-04 13:05 | 49.98414 | 14.67350 | 3990 ft | 225 kts | 210° |
| 2026-05-04 13:05 | 49.97325 | 14.65718 | 3982 ft | 216 kts | 244° |
| 2026-05-04 13:05 | 49.96988 | 14.63497 | 4000 ft | 214 kts | 269° |
| 2026-05-04 13:06 | 49.97024 | 14.61179 | 4001 ft | 214 kts | 274° |
| 2026-05-04 13:06 | 49.97128 | 14.58890 | 3997 ft | 214 kts | 275° |
| 2026-05-04 13:06 | 49.97249 | 14.56560 | 3996 ft | 214 kts | 275° |
| 2026-05-04 13:06 | 49.97376 | 14.54262 | 3995 ft | 214 kts | 279° |
| 2026-05-04 13:07 | 49.97737 | 14.52106 | 3979 ft | 202 kts | 294° |
| 2026-05-04 13:07 | 49.98365 | 14.50251 | 4069 ft | 193 kts | 302° |
| 2026-05-04 13:07 | 49.99149 | 14.48556 | 4078 ft | 192 kts | 308° |
| 2026-05-04 13:07 | 49.99974 | 14.46931 | 4042 ft | 192 kts | 308° |
| 2026-05-04 13:08 | 50.00780 | 14.45322 | 3839 ft | 187 kts | 308° |
| 2026-05-04 13:08 | 50.01557 | 14.43731 | 3592 ft | 182 kts | 307° |
| 2026-05-04 13:08 | 50.02298 | 14.42191 | 3351 ft | 173 kts | 308° |
| 2026-05-04 13:08 | 50.03001 | 14.40722 | 3132 ft | 169 kts | 308° |
| 2026-05-04 13:09 | 50.03699 | 14.39265 | 2926 ft | 168 kts | 308° |
| 2026-05-04 13:09 | 50.04405 | 14.37794 | 2714 ft | 167 kts | 308° |
| 2026-05-04 13:09 | 50.05075 | 14.36401 | 2514 ft | 156 kts | 308° |
| 2026-05-04 13:09 | 50.05697 | 14.35107 | 2298 ft | 143 kts | 308° |
| 2026-05-04 13:10 | 50.06273 | 14.33912 | 2110 ft | 137 kts | 308° |
| 2026-05-04 13:10 | 50.06844 | 14.32730 | 1947 ft | 137 kts | 308° |
| 2026-05-04 13:10 | 50.07410 | 14.31552 | 1775 ft | 136 kts | 308° |
| 2026-05-04 13:10 | 50.07987 | 14.30383 | 1596 ft | 136 kts | 308° |
| 2026-05-04 13:11 | 50.08551 | 14.29193 | 1418 ft | 135 kts | 308° |
| 2026-05-04 13:11 | 50.09116 | 14.28025 | 1277 ft | 135 kts | 308° |
| 2026-05-04 13:11 | 50.09665 | 14.26904 | 1215 ft | 119 kts | 307° |
| 2026-05-04 13:11 | 50.10059 | 14.26079 | 1198 ft | 69 kts | 306° |
| 2026-05-04 13:12 | 50.10267 | 14.25715 | 1187 ft | 26 kts | 330° |
| 2026-05-04 13:12 | 50.10390 | 14.25656 | 1182 ft | 16 kts | 359° |
| 2026-05-04 13:12 | 50.10450 | 14.25665 | 1181 ft | 7 kts | 9° |
| 2026-05-04 13:12 | 50.10487 | 14.25725 | 1180 ft | 9 kts | 76° |
| 2026-05-04 13:13 | 50.10498 | 14.25823 | 1181 ft | 9 kts | 80° |
| 2026-05-04 13:13 | 50.10510 | 14.25928 | 1181 ft | 10 kts | 78° |
| 2026-05-04 13:13 | 50.10524 | 14.26040 | 1182 ft | 10 kts | 79° |
| 2026-05-04 13:13 | 50.10536 | 14.26140 | 1182 ft | 7 kts | 83° |
| 2026-05-04 13:14 | 50.10528 | 14.26222 | 1183 ft | 7 kts | 115° |
| 2026-05-04 13:14 | 50.10516 | 14.26267 | 1183 ft | 4 kts | 97° |
| 2026-05-04 13:14 | 50.10528 | 14.26307 | 1184 ft | 4 kts | 39° |
| 2026-05-04 13:14 | 50.10547 | 14.26329 | 1184 ft | 3 kts | 35° |
| 2026-05-04 13:15 | 50.10558 | 14.26341 | 1183 ft | 1 kts | 36° |
| 2026-05-04 13:15 | 50.10559 | 14.26342 | 1183 ft | 0 kts | 36° |